EGMC Airport Information

Runway Information
Runway 05 Length 6089 ft width 118 ft
Elevation 49 ft Threshold 571 ft Heading 54
Runway 23 Length 6089 ft Width 118 ft
Elevation 37 ft Threshold 479 ft Heading 234
Airport Frequencies
Type APP Name APP Frequency 130.775 MHZ
Type ATIS Name ATIS Frequency 121.8 MHZ
Type RDR Name RDR Frequency 130.775 MHZ
Type TWR Name TWR Frequency 127.725 MHZ
Airport Navaids
Airport Weather Information & NOTAM
ADDS - METARS form results

(1518 UTC 11 August 2022)
Data provider http://aviationweather.gov/metar/data/
 
METAR text: EGMC 111450Z 07014KT CAVOK 29/09 Q1021
Conditions at: EGMC (SOUTHEND-ON-SEA , GB) observed 1450 UTC 11 August 2022
Temperature: 29.0°C (84°F)
Dewpoint: 9.0°C (48°F) [RH = 29%]
Pressure (altimeter): 30.15 inches Hg (1021.0 mb)
Winds: from the ENE (70 degrees) at 16 MPH (14 knots; 7.2 m/s)
Visibility: 6 or more miles (10+ km)
Ceiling: ceiling and visibility are OK
Clouds: unknown
Weather: no significant weather observed at this time

METAR text: EGMC 111420Z 07011KT 040V100 CAVOK 29/09 Q1021
Conditions at: EGMC (SOUTHEND-ON-SEA , GB) observed 1420 UTC 11 August 2022
Temperature: 29.0°C (84°F)
Dewpoint: 9.0°C (48°F) [RH = 29%]
Pressure (altimeter): 30.15 inches Hg (1021.0 mb)
Winds: from the ENE (70 degrees) at 13 MPH (11 knots; 5.7 m/s)
Visibility: 6 or more miles (10+ km)
Ceiling: ceiling and visibility are OK
Clouds: unknown
Weather: no significant weather observed at this time

Forecast for: EGMC (SOUTHEND-ON-SEA , GB)
Text: TAF EGMC 111358Z 1115/1124 07011KT CAVOK
Forecast period: 1500 UTC 11 August 2022 to 0000 UTC 12 August 2022
Forecast type: FROM: standard forecast or significant change
Winds: from the ENE (70 degrees) at 13 MPH (11 knots; 5.7 m/s)
Visibility: 6 or more miles (10+ km)
Ceiling: unknown
Clouds: missing
Weather: NSW  (no significant weather)